Time;durP1;ratioP1;P1;durP2;ratioP2;P2;SDS_P1;SDS_P2;PMS_P1;PMS_P2;Temp;Humidity;BMP_temperature;BMP_pressure;BME280_temperature;BME280_humidity;BME280_pressure;Samples;Min_cycle;Max_cycle;Signal;HPM_P1;HPM_P2
2021/03/05 00:00:10;;;;;;;4.37;1.40;;;0.90;99.90;;;;;;5045436;28;20480;-50
2021/03/05 00:02:41;;;;;;;3.53;1.37;;;0.80;99.90;;;;;;5026594;28;20483;-50
2021/03/05 00:05:29;;;;;;;5.63;1.63;;;0.80;99.90;;;;;;5023955;28;20476;-50
2021/03/05 00:07:56;;;;;;;6.30;1.53;;;0.70;99.90;;;;;;5042426;28;20471;-51
2021/03/05 00:10:28;;;;;;;4.80;1.63;;;0.60;99.90;;;;;;5042379;28;20486;-50
2021/03/05 00:12:57;;;;;;;5.07;1.13;;;0.60;99.90;;;;;;5035187;28;20488;-50
2021/03/05 00:15:28;;;;;;;4.03;1.23;;;0.50;99.90;;;;;;5006981;28;20533;-50
2021/03/05 00:17:56;;;;;;;5.10;1.40;;;0.40;99.90;;;;;;5006435;28;20900;-52
2021/03/05 00:20:26;;;;;;;6.53;1.10;;;0.40;99.90;;;;;;5007754;28;20473;-50
2021/03/05 00:22:54;;;;;;;4.87;1.43;;;0.40;99.90;;;;;;5006323;28;20478;-50
2021/03/05 00:25:22;;;;;;;5.30;1.43;;;0.40;99.90;;;;;;5005715;28;20520;-50
2021/03/05 00:27:49;;;;;;;2.23;1.13;;;0.40;99.90;;;;;;5011656;28;20563;-51
2021/03/05 00:30:19;;;;;;;3.40;1.40;;;0.40;99.90;;;;;;5024740;28;21053;-50
2021/03/05 00:32:47;;;;;;;3.60;1.30;;;0.50;99.90;;;;;;5026023;28;20522;-52
2021/03/05 00:35:17;;;;;;;3.27;1.50;;;0.40;99.90;;;;;;5025707;28;21037;-51
2021/03/05 00:37:51;;;;;;;3.13;1.17;;;0.40;99.90;;;;;;5025524;28;20479;-50
2021/03/05 00:40:20;;;;;;;6.50;1.30;;;0.40;99.90;;;;;;5026518;28;20481;-50
2021/03/05 00:42:49;;;;;;;3.47;1.30;;;0.40;99.90;;;;;;5025355;28;20511;-50
2021/03/05 00:45:20;;;;;;;3.67;1.43;;;0.50;99.90;;;;;;5024368;28;20544;-50
2021/03/05 00:47:49;;;;;;;5.43;1.33;;;0.40;99.90;;;;;;5041232;28;20557;-51
2021/03/05 00:50:20;;;;;;;5.90;1.50;;;0.40;99.90;;;;;;5026105;28;20500;-50
2021/03/05 00:52:50;;;;;;;6.53;1.63;;;0.50;99.90;;;;;;5039326;28;20486;-50
2021/03/05 00:55:19;;;;;;;6.37;1.70;;;0.40;99.90;;;;;;5028201;28;20479;-50
2021/03/05 00:57:50;;;;;;;5.33;1.30;;;0.30;99.90;;;;;;5023738;28;20557;-50
2021/03/05 01:00:20;;;;;;;5.20;2.00;;;0.30;99.90;;;;;;5026890;28;20540;-52
2021/03/05 01:02:47;;;;;;;4.87;1.50;;;0.20;99.90;;;;;;5025213;28;21003;-52
2021/03/05 01:05:16;;;;;;;5.90;1.70;;;0.30;99.90;;;;;;5039201;28;20481;-50
2021/03/05 01:07:43;;;;;;;2.57;1.50;;;0.20;99.90;;;;;;5036241;28;20531;-50
2021/03/05 01:10:17;;;;;;;4.47;1.50;;;0.20;99.90;;;;;;5026318;28;20483;-50
2021/03/05 01:12:44;;;;;;;6.13;1.40;;;0.20;99.90;;;;;;5045770;28;20580;-51
2021/03/05 01:15:12;;;;;;;3.03;1.40;;;0.40;99.90;;;;;;5037923;28;20567;-49
2021/03/05 01:17:40;;;;;;;9.00;1.80;;;0.50;99.90;;;;;;5045737;28;20895;-51
2021/03/05 01:20:13;;;;;;;5.30;1.90;;;0.30;99.90;;;;;;5028868;28;20476;-51
2021/03/05 01:22:41;;;;;;;4.53;1.80;;;0.30;99.90;;;;;;5032711;28;21031;-51
2021/03/05 01:25:10;;;;;;;7.07;1.43;;;0.30;99.90;;;;;;5024810;28;20477;-50
2021/03/05 01:27:38;;;;;;;5.87;2.13;;;0.20;99.90;;;;;;5025216;28;20542;-50
2021/03/05 01:30:08;;;;;;;5.97;1.70;;;0.20;99.90;;;;;;5026695;28;20477;-50
2021/03/05 01:32:36;;;;;;;3.87;1.47;;;0.20;99.90;;;;;;5028826;28;20935;-50
2021/03/05 01:35:09;;;;;;;9.33;1.90;;;0.20;99.90;;;;;;5028244;28;20503;-52
2021/03/05 01:37:37;;;;;;;4.33;1.57;;;0.20;99.90;;;;;;5017865;28;21175;-52
2021/03/05 01:40:06;;;;;;;4.50;1.50;;;0.10;99.90;;;;;;5013903;28;20485;-50
2021/03/05 01:42:33;;;;;;;3.87;1.43;;;0.20;99.90;;;;;;5008150;28;20563;-51
2021/03/05 01:45:01;;;;;;;5.10;1.73;;;0.20;99.90;;;;;;5007813;28;20900;-50
2021/03/05 01:47:28;;;;;;;6.63;1.80;;;0.20;99.90;;;;;;5032027;28;20482;-50
2021/03/05 01:49:56;;;;;;;4.47;1.37;;;0.40;99.90;;;;;;5047141;28;20513;-50
2021/03/05 01:52:24;;;;;;;5.47;1.67;;;0.30;99.90;;;;;;5022059;28;20497;-50
2021/03/05 01:54:51;;;;;;;8.07;2.07;;;0.50;99.90;;;;;;5015843;28;20495;-52
2021/03/05 01:57:19;;;;;;;8.57;2.00;;;0.70;99.90;;;;;;5026071;28;20483;-51
2021/03/05 01:59:46;;;;;;;5.23;1.80;;;0.70;99.90;;;;;;5027098;28;20559;-50
2021/03/05 02:02:13;;;;;;;4.90;1.80;;;0.80;99.90;;;;;;5016375;28;20972;-50
2021/03/05 02:04:41;;;;;;;5.37;1.80;;;1.00;99.90;;;;;;5024415;28;20566;-51
2021/03/05 02:07:09;;;;;;;3.20;1.77;;;1.00;99.90;;;;;;5030631;28;20582;-51
2021/03/05 02:09:37;;;;;;;5.00;2.03;;;0.80;99.90;;;;;;5040090;28;20537;-50
2021/03/05 02:12:05;;;;;;;3.73;1.50;;;0.70;99.90;;;;;;5053631;28;20544;-51
2021/03/05 02:14:34;;;;;;;3.13;1.77;;;0.70;99.90;;;;;;5048001;28;20513;-50
2021/03/05 02:17:09;;;;;;;8.17;1.80;;;0.70;99.90;;;;;;5047558;28;20486;-49
2021/03/05 02:20:00;;;;;;;6.57;1.83;;;0.80;99.90;;;;;;5048140;28;20833;-50
2021/03/05 02:23:26;;;;;;;5.03;1.90;;;0.80;99.90;;;;;;5030148;28;20495;-50
2021/03/05 02:26:52;;;;;;;5.83;2.00;;;0.70;99.90;;;;;;5047625;28;20586;-49
2021/03/05 02:30:22;;;;;;;3.17;1.40;;;0.70;99.90;;;;;;5047932;28;20475;-51
2021/03/05 02:32:59;;;;;;;6.00;1.73;;;0.40;99.90;;;;;;5047113;28;21013;-50
2021/03/05 02:35:31;;;;;;;3.97;1.70;;;0.30;99.90;;;;;;5038924;28;20479;-51
2021/03/05 02:38:03;;;;;;;3.73;1.63;;;0.10;99.90;;;;;;5048880;28;20568;-50
2021/03/05 02:40:34;;;;;;;3.37;1.70;;;0.00;99.90;;;;;;5028306;28;20488;-50
2021/03/05 02:43:06;;;;;;;5.10;1.50;;;0.00;99.90;;;;;;5028424;28;20918;-51
2021/03/05 02:45:37;;;;;;;7.30;1.97;;;0.00;99.90;;;;;;5025862;28;20511;-50
2021/03/05 02:48:12;;;;;;;6.30;1.67;;;0.20;99.90;;;;;;5044995;28;21904;-53
2021/03/05 02:50:45;;;;;;;5.33;1.83;;;0.20;99.90;;;;;;5025107;28;20483;-50
2021/03/05 02:53:16;;;;;;;5.67;1.77;;;0.50;99.90;;;;;;5027913;28;20476;-50
2021/03/05 02:55:48;;;;;;;4.13;1.97;;;0.60;99.90;;;;;;5030549;28;20526;-51
2021/03/05 02:58:18;;;;;;;3.07;1.83;;;0.70;99.90;;;;;;5041832;28;20558;-50
2021/03/05 03:00:46;;;;;;;9.03;2.00;;;0.70;99.90;;;;;;5033224;28;20486;-50
2021/03/05 03:03:18;;;;;;;2.63;1.90;;;0.90;99.90;;;;;;5036508;28;20494;-52
2021/03/05 03:05:46;;;;;;;5.77;1.83;;;1.00;99.90;;;;;;5039028;28;20479;-53
2021/03/05 03:08:15;;;;;;;3.00;1.90;;;0.90;99.90;;;;;;5045642;28;20559;-52
2021/03/05 03:10:42;;;;;;;4.93;1.83;;;0.90;99.90;;;;;;5046833;28;20470;-51
2021/03/05 03:13:12;;;;;;;4.73;1.70;;;0.60;99.90;;;;;;5035615;28;20511;-50
2021/03/05 03:15:41;;;;;;;6.13;1.70;;;0.90;99.90;;;;;;5027228;28;20472;-51
2021/03/05 03:18:12;;;;;;;4.03;1.73;;;0.80;99.90;;;;;;5039155;28;20490;-50
2021/03/05 03:20:43;;;;;;;8.57;1.80;;;1.10;99.90;;;;;;5024406;28;20519;-50
2021/03/05 03:23:10;;;;;;;4.80;1.77;;;1.10;99.90;;;;;;5028869;28;20516;-51
2021/03/05 03:25:38;;;;;;;3.77;1.80;;;1.10;99.90;;;;;;5040163;28;20510;-52
2021/03/05 03:28:06;;;;;;;2.90;1.40;;;1.10;99.90;;;;;;5053339;28;20827;-51
2021/03/05 03:30:34;;;;;;;4.60;1.80;;;1.00;99.90;;;;;;5046155;28;20468;-50
2021/03/05 03:33:01;;;;;;;2.90;1.80;;;1.00;99.90;;;;;;5050285;28;20974;-51
2021/03/05 03:35:29;;;;;;;4.97;1.43;;;0.90;99.90;;;;;;5066053;28;20478;-50
2021/03/05 03:38:20;;;;;;;4.80;2.10;;;0.80;99.90;;;;;;5067143;28;21112;-50
2021/03/05 03:40:48;;;;;;;6.17;1.87;;;0.90;99.90;;;;;;5049012;28;20554;-52
2021/03/05 03:43:15;;;;;;;3.30;1.80;;;0.80;99.90;;;;;;5040820;28;20564;-50
2021/03/05 03:45:42;;;;;;;5.20;1.80;;;0.90;99.90;;;;;;5035901;28;20504;-50
2021/03/05 03:48:11;;;;;;;3.37;1.50;;;0.90;99.90;;;;;;5025655;28;20472;-51
2021/03/05 03:50:44;;;;;;;3.90;1.60;;;0.90;99.90;;;;;;5038697;28;21077;-51
2021/03/05 03:53:15;;;;;;;5.30;1.83;;;0.70;99.90;;;;;;5046867;28;20488;-50
2021/03/05 03:55:50;;;;;;;4.70;1.90;;;0.70;99.90;;;;;;5029234;28;20829;-50
2021/03/05 03:58:20;;;;;;;4.37;2.10;;;0.80;99.90;;;;;;5025494;28;20571;-51
2021/03/05 04:00:50;;;;;;;4.23;1.67;;;0.90;99.90;;;;;;5025091;28;20475;-50
2021/03/05 04:03:19;;;;;;;3.60;1.80;;;0.80;99.90;;;;;;5042078;28;20548;-51
2021/03/05 04:05:52;;;;;;;2.83;1.50;;;0.70;99.90;;;;;;5045378;28;20475;-49
2021/03/05 04:08:35;;;;;;;5.77;1.93;;;0.70;99.90;;;;;;5046222;28;20498;-53
2021/03/05 04:11:06;;;;;;;2.57;1.67;;;0.70;99.90;;;;;;5045950;28;20480;-50
2021/03/05 04:13:34;;;;;;;3.90;2.00;;;0.80;99.90;;;;;;5047073;28;20480;-52
2021/03/05 04:16:03;;;;;;;7.57;2.00;;;0.80;99.90;;;;;;5045271;28;20570;-51
2021/03/05 04:18:32;;;;;;;6.13;2.23;;;0.80;99.90;;;;;;5037361;28;20734;-50
2021/03/05 04:21:05;;;;;;;8.10;2.10;;;0.60;99.90;;;;;;5046530;28;20484;-50
2021/03/05 04:23:33;;;;;;;5.53;1.97;;;0.60;99.90;;;;;;5026055;28;21003;-51
2021/03/05 04:26:01;;;;;;;3.97;2.23;;;0.60;99.90;;;;;;5040103;28;20513;-50
2021/03/05 04:28:30;;;;;;;3.90;2.00;;;0.50;99.90;;;;;;5021554;28;20550;-51
2021/03/05 04:30:57;;;;;;;6.73;1.90;;;0.60;99.90;;;;;;5005611;28;20536;-50
2021/03/05 04:33:25;;;;;;;4.20;2.00;;;0.50;99.90;;;;;;5020404;28;20487;-52
2021/03/05 04:35:52;;;;;;;6.90;2.17;;;0.60;99.90;;;;;;5025272;28;20508;-51
2021/03/05 04:38:20;;;;;;;3.43;2.20;;;0.80;99.90;;;;;;5025703;28;20554;-50
2021/03/05 04:40:48;;;;;;;2.77;2.07;;;0.80;99.90;;;;;;5025387;28;20463;-50
2021/03/05 04:43:15;;;;;;;5.23;2.37;;;0.70;99.90;;;;;;5020310;28;20473;-51
2021/03/05 04:45:43;;;;;;;5.03;2.40;;;0.70;99.90;;;;;;5021949;28;20479;-50
2021/03/05 04:48:11;;;;;;;5.20;2.40;;;0.70;99.90;;;;;;5024970;28;20563;-50
2021/03/05 04:50:39;;;;;;;3.77;2.50;;;0.70;99.90;;;;;;5041551;28;20501;-51
2021/03/05 04:53:06;;;;;;;5.20;2.27;;;0.70;99.90;;;;;;5022694;28;20564;-50
2021/03/05 04:55:34;;;;;;;6.93;2.47;;;0.50;99.90;;;;;;5019233;28;20492;-50
2021/03/05 04:58:02;;;;;;;4.70;2.30;;;0.60;99.90;;;;;;5022521;28;20583;-50
2021/03/05 05:00:30;;;;;;;4.40;2.27;;;0.60;99.90;;;;;;5024698;28;20554;-52
2021/03/05 05:02:58;;;;;;;4.27;2.60;;;0.50;99.90;;;;;;5025806;28;20500;-50
2021/03/05 05:05:27;;;;;;;4.57;2.30;;;0.50;99.90;;;;;;5028316;28;20559;-50
2021/03/05 05:07:55;;;;;;;6.33;2.80;;;0.50;99.90;;;;;;5029759;28;20559;-52
2021/03/05 05:10:24;;;;;;;3.93;2.20;;;0.60;99.90;;;;;;5029149;28;20534;-49
2021/03/05 05:12:52;;;;;;;5.63;2.60;;;0.50;99.90;;;;;;5029704;28;20480;-52
2021/03/05 05:15:19;;;;;;;5.00;2.47;;;0.50;99.90;;;;;;5044423;28;20475;-53
2021/03/05 05:17:47;;;;;;;6.03;3.10;;;0.50;99.90;;;;;;1674293;28;10022816;-51
2021/03/05 05:20:16;;;;;;;3.97;2.77;;;0.50;99.90;;;;;;4342797;28;10001505;-51
2021/03/05 05:22:43;;;;;;;4.77;2.60;;;0.60;99.90;;;;;;5029549;28;20472;-51
2021/03/05 05:25:11;;;;;;;6.70;3.00;;;0.70;99.90;;;;;;5032623;28;20507;-52
2021/03/05 05:27:39;;;;;;;4.77;2.73;;;0.80;99.90;;;;;;5029139;28;20542;-50
2021/03/05 05:30:08;;;;;;;6.37;3.07;;;0.60;99.90;;;;;;5034017;28;20601;-50
2021/03/05 05:32:35;;;;;;;6.13;2.60;;;0.50;99.90;;;;;;5048607;28;20496;-50
2021/03/05 05:35:04;;;;;;;7.20;2.57;;;0.50;99.90;;;;;;5049938;28;20508;-50
2021/03/05 05:37:32;;;;;;;3.27;2.30;;;0.30;99.90;;;;;;5048854;28;21029;-52
2021/03/05 05:39:59;;;;;;;4.47;2.80;;;0.40;99.90;;;;;;5038471;28;20511;-50
2021/03/05 05:42:27;;;;;;;4.40;3.10;;;0.50;99.90;;;;;;5040218;28;20494;-50
2021/03/05 05:44:54;;;;;;;5.13;2.90;;;0.20;99.90;;;;;;5031864;28;20504;-50
2021/03/05 05:47:22;;;;;;;3.43;2.63;;;0.40;99.90;;;;;;5046528;28;20563;-50
2021/03/05 05:49:54;;;;;;;3.40;2.43;;;0.30;99.90;;;;;;5055772;28;20477;-50
2021/03/05 05:52:26;;;;;;;7.53;3.20;;;0.30;99.90;;;;;;5043833;28;20488;-50
2021/03/05 05:54:55;;;;;;;3.73;3.00;;;0.30;99.90;;;;;;5034404;28;20495;-50
2021/03/05 05:57:23;;;;;;;6.13;3.60;;;0.40;99.90;;;;;;5057562;28;20475;-51
2021/03/05 05:59:52;;;;;;;11.43;3.60;;;0.50;99.90;;;;;;5050699;28;20570;-51
2021/03/05 06:02:20;;;;;;;9.23;3.43;;;0.40;99.90;;;;;;5047178;28;20539;-50
2021/03/05 06:04:49;;;;;;;9.73;3.90;;;0.50;99.90;;;;;;5047576;28;20478;-51
2021/03/05 06:07:17;;;;;;;10.23;4.33;;;0.60;99.90;;;;;;5047083;28;20533;-51
2021/03/05 06:10:06;;;;;;;8.90;3.77;;;0.60;99.90;;;;;;5048489;28;20479;-50
2021/03/05 06:12:35;;;;;;;7.27;4.47;;;0.70;99.90;;;;;;5046963;28;20566;-50
2021/03/05 06:15:03;;;;;;;7.90;3.97;;;0.70;99.90;;;;;;5044793;28;21172;-51
2021/03/05 06:17:49;;;;;;;10.47;4.20;;;0.70;99.90;;;;;;5040444;28;20474;-52
2021/03/05 06:20:18;;;;;;;6.20;3.60;;;0.60;99.90;;;;;;5043650;28;21189;-50
2021/03/05 06:22:46;;;;;;;6.70;3.60;;;0.40;99.90;;;;;;5045438;28;20482;-51
2021/03/05 06:25:34;;;;;;;7.83;3.47;;;0.50;99.90;;;;;;5046901;28;20493;-52
2021/03/05 06:28:14;;;;;;;7.57;3.27;;;0.40;99.90;;;;;;5046977;28;21010;-49
2021/03/05 06:30:41;;;;;;;6.83;3.20;;;0.40;99.90;;;;;;5047009;28;20536;-50
2021/03/05 06:33:24;;;;;;;3.50;2.67;;;0.40;99.90;;;;;;5038311;28;21012;-51
2021/03/05 06:35:52;;;;;;;8.10;3.23;;;0.40;99.90;;;;;;5032888;28;21346;-50
2021/03/05 06:38:39;;;;;;;8.90;4.07;;;0.60;99.90;;;;;;5035046;28;20503;-49
2021/03/05 06:41:26;;;;;;;11.27;3.93;;;0.80;99.90;;;;;;5029595;28;20464;-50
2021/03/05 06:43:55;;;;;;;7.27;3.80;;;0.90;99.90;;;;;;5038388;28;20470;-51
2021/03/05 06:46:31;;;;;;;5.53;3.50;;;0.90;99.90;;;;;;5055497;28;20495;-50
2021/03/05 06:49:01;;;;;;;5.00;3.30;;;0.90;99.90;;;;;;5045638;28;21075;-52
2021/03/05 06:51:29;;;;;;;7.10;3.27;;;0.90;99.90;;;;;;5039694;28;21281;-53
2021/03/05 06:54:09;;;;;;;6.70;3.80;;;1.10;99.90;;;;;;5041243;28;21004;-50
2021/03/05 06:56:39;;;;;;;6.50;3.07;;;1.30;99.90;;;;;;5055268;28;20539;-55
2021/03/05 06:59:10;;;;;;;6.40;3.97;;;1.30;99.90;;;;;;5035303;28;658370;-53
2021/03/05 07:01:50;;;;;;;4.33;3.13;;;1.50;99.90;;;;;;5042351;28;20696;-51
2021/03/05 07:04:20;;;;;;;4.80;2.63;;;1.30;99.90;;;;;;5044817;28;20485;-51
2021/03/05 07:06:57;;;;;;;3.60;2.30;;;1.10;99.90;;;;;;5029365;28;20468;-51
2021/03/05 07:09:29;;;;;;;4.57;2.53;;;1.00;99.90;;;;;;5029279;28;20503;-51
2021/03/05 07:11:58;;;;;;;5.13;2.50;;;0.90;99.90;;;;;;5026208;28;20472;-51
2021/03/05 07:14:28;;;;;;;4.63;2.73;;;0.90;99.90;;;;;;5032581;28;20588;-50
2021/03/05 07:16:57;;;;;;;5.00;2.43;;;0.90;99.90;;;;;;5050703;28;20879;-50
2021/03/05 07:19:27;;;;;;;5.73;2.50;;;0.90;99.90;;;;;;5045936;28;20491;-52
2021/03/05 07:21:56;;;;;;;5.40;2.50;;;1.00;99.90;;;;;;5046587;28;20557;-50
2021/03/05 07:24:26;;;;;;;4.93;2.60;;;1.10;99.90;;;;;;5046771;28;20475;-50
2021/03/05 07:26:59;;;;;;;3.37;2.30;;;1.20;99.90;;;;;;5036857;28;20578;-51
2021/03/05 07:29:30;;;;;;;3.43;2.37;;;1.30;99.90;;;;;;5055812;28;20457;-51
2021/03/05 07:32:07;;;;;;;4.53;2.40;;;1.30;99.90;;;;;;5058863;28;20548;-52
2021/03/05 07:34:46;;;;;;;5.60;2.50;;;1.50;99.90;;;;;;5047704;28;20499;-51
2021/03/05 07:37:15;;;;;;;2.93;2.30;;;1.50;99.90;;;;;;5039892;28;20475;-50
2021/03/05 07:39:46;;;;;;;6.77;2.20;;;1.60;99.90;;;;;;5021347;28;20477;-51
2021/03/05 07:42:15;;;;;;;5.77;2.70;;;1.80;99.90;;;;;;5057505;28;20529;-50
2021/03/05 07:44:49;;;;;;;4.33;2.67;;;1.90;99.90;;;;;;5019045;28;20478;-51
2021/03/05 07:47:17;;;;;;;6.27;2.50;;;2.00;99.90;;;;;;5040212;28;20695;-50
2021/03/05 07:49:45;;;;;;;3.13;2.07;;;2.10;99.90;;;;;;5025742;28;20480;-50
2021/03/05 07:52:14;;;;;;;4.10;2.50;;;2.20;99.90;;;;;;5044990;28;20531;-50
2021/03/05 07:54:50;;;;;;;5.07;1.97;;;2.30;99.90;;;;;;5033231;28;20467;-50
2021/03/05 07:57:46;;;;;;;4.77;2.47;;;2.30;99.90;;;;;;5026947;28;20823;-51
2021/03/05 08:00:45;;;;;;;5.70;2.20;;;2.40;99.90;;;;;;5025621;28;20474;-51
2021/03/05 08:03:14;;;;;;;2.90;1.90;;;2.50;99.90;;;;;;5036783;28;20485;-51
2021/03/05 08:05:44;;;;;;;4.47;2.50;;;2.60;99.90;;;;;;5047043;28;20485;-51
2021/03/05 08:08:21;;;;;;;4.00;1.97;;;2.70;99.90;;;;;;5064060;28;20472;-50
2021/03/05 08:10:55;;;;;;;4.73;2.60;;;2.80;99.90;;;;;;5065939;28;21214;-51
2021/03/05 08:13:47;;;;;;;4.40;2.23;;;2.80;99.90;;;;;;5063438;28;20896;-50
2021/03/05 08:16:39;;;;;;;5.10;1.73;;;2.90;99.90;;;;;;5039995;28;20539;-51
2021/03/05 08:19:48;;;;;;;4.20;2.00;;;3.00;99.90;;;;;;5029966;28;20483;-51
2021/03/05 08:22:20;;;;;;;5.07;1.93;;;3.20;99.90;;;;;;5025495;28;20488;-51
2021/03/05 08:24:48;;;;;;;2.50;1.70;;;3.30;99.90;;;;;;5026039;28;20513;-52
2021/03/05 08:27:35;;;;;;;2.87;1.67;;;3.40;99.90;;;;;;5025747;28;20511;-51
2021/03/05 08:30:21;;;;;;;3.30;1.70;;;3.50;99.90;;;;;;5026880;28;20816;-50
2021/03/05 08:32:57;;;;;;;3.27;1.50;;;3.70;99.90;;;;;;5024730;28;20495;-52
2021/03/05 08:35:49;;;;;;;3.00;1.40;;;3.90;99.90;;;;;;5022179;28;20556;-49
2021/03/05 08:38:35;;;;;;;3.13;1.60;;;4.00;99.90;;;;;;5025507;28;20533;-50
2021/03/05 08:41:05;;;;;;;3.73;1.53;;;4.20;99.90;;;;;;5024771;28;20493;-49
2021/03/05 08:43:34;;;;;;;2.10;1.50;;;4.30;99.90;;;;;;5026635;28;20627;-49
2021/03/05 08:46:05;;;;;;;5.27;1.50;;;4.40;99.90;;;;;;5024594;28;21065;-49
2021/03/05 08:48:45;;;;;;;4.03;1.63;;;4.50;99.90;;;;;;5021762;28;20498;-50
2021/03/05 08:51:15;;;;;;;5.57;1.50;;;4.60;99.90;;;;;;5040635;28;20476;-49
2021/03/05 08:53:47;;;;;;;4.53;1.27;;;4.70;99.90;;;;;;5041071;28;20477;-49
2021/03/05 08:56:25;;;;;;;5.77;1.67;;;4.80;99.90;;;;;;5027694;28;20566;-51
2021/03/05 08:59:01;;;;;;;7.33;1.60;;;4.90;99.90;;;;;;5027441;28;21035;-50
2021/03/05 09:01:32;;;;;;;3.23;1.10;;;5.00;99.90;;;;;;5019072;28;20485;-50
2021/03/05 09:04:15;;;;;;;2.20;1.27;;;5.10;99.90;;;;;;5006262;28;20578;-50
2021/03/05 09:06:50;;;;;;;2.30;1.30;;;5.10;99.90;;;;;;5018891;28;20240;-50
2021/03/05 09:09:19;;;;;;;3.20;1.30;;;5.30;99.90;;;;;;5035914;28;20463;-50
2021/03/05 09:12:04;;;;;;;4.17;1.27;;;5.40;99.90;;;;;;5026484;28;20472;-49
2021/03/05 09:14:32;;;;;;;2.87;1.20;;;5.70;99.90;;;;;;5045246;28;20485;-49
2021/03/05 09:17:03;;;;;;;2.67;1.50;;;5.90;99.90;;;;;;5028270;28;20247;-49
2021/03/05 09:19:36;;;;;;;3.00;1.30;;;5.90;99.90;;;;;;5025005;28;20265;-49
2021/03/05 09:22:13;;;;;;;3.57;1.27;;;6.00;99.90;;;;;;5026437;28;20478;-49
2021/03/05 09:24:51;;;;;;;2.67;1.10;;;6.40;99.90;;;;;;5024651;28;20271;-50
2021/03/05 09:27:23;;;;;;;1.70;1.00;;;7.00;99.90;;;;;;5025046;28;20328;-49
2021/03/05 09:29:52;;;;;;;3.40;1.10;;;7.30;99.90;;;;;;5037022;28;20766;-50
2021/03/05 09:32:20;;;;;;;1.70;1.00;;;7.30;99.90;;;;;;5044437;28;20301;-50
2021/03/05 09:34:51;;;;;;;3.43;1.30;;;7.10;99.90;;;;;;5041545;28;20247;-50
2021/03/05 09:37:20;;;;;;;2.73;1.30;;;7.10;99.90;;;;;;5033938;28;20334;-51
2021/03/05 09:39:53;;;;;;;2.47;1.00;;;7.20;99.90;;;;;;5025442;28;20326;-50
2021/03/05 09:42:50;;;;;;;1.47;0.90;;;7.00;99.90;;;;;;5035134;28;20243;-50
2021/03/05 09:45:40;;;;;;;2.87;0.70;;;6.90;99.90;;;;;;5042192;28;20242;-50
2021/03/05 09:48:27;;;;;;;1.63;0.80;;;6.90;99.90;;;;;;5042911;28;20263;-50
2021/03/05 09:50:59;;;;;;;2.50;1.00;;;7.00;99.90;;;;;;5041456;28;20225;-51
2021/03/05 09:53:31;;;;;;;1.30;0.70;;;6.90;99.90;;;;;;5009224;28;20233;-50
2021/03/05 09:56:01;;;;;;;2.63;1.00;;;6.70;99.90;;;;;;5009564;28;20239;-49
2021/03/05 09:58:29;;;;;;;4.40;1.10;;;6.80;99.90;;;;;;5022785;28;20404;-49
2021/03/05 10:00:58;;;;;;;1.67;0.90;;;7.10;99.90;;;;;;5016081;28;20236;-49
2021/03/05 10:03:30;;;;;;;2.33;0.83;;;7.20;99.90;;;;;;5028367;28;20252;-52
2021/03/05 10:06:01;;;;;;;3.30;0.87;;;7.30;99.90;;;;;;5027982;28;20263;-49
2021/03/05 10:08:31;;;;;;;2.07;0.80;;;7.30;99.90;;;;;;5028368;28;20717;-50
2021/03/05 10:11:06;;;;;;;2.77;0.80;;;7.20;99.90;;;;;;5028581;28;20257;-50
2021/03/05 10:13:58;;;;;;;1.83;0.77;;;7.40;99.90;;;;;;5027441;28;20232;-50
2021/03/05 10:16:28;;;;;;;1.63;0.70;;;7.60;99.90;;;;;;5016922;28;20313;-49
2021/03/05 10:19:02;;;;;;;3.27;1.00;;;7.80;99.90;;;;;;5040597;28;20239;-49
2021/03/05 10:21:30;;;;;;;2.37;0.97;;;7.90;99.90;;;;;;5049117;28;20317;-50
2021/03/05 10:24:04;;;;;;;2.47;0.90;;;8.00;99.90;;;;;;5044477;28;20328;-52
2021/03/05 10:26:31;;;;;;;5.03;0.80;;;8.10;99.90;;;;;;5055738;28;20231;-50
2021/03/05 10:29:01;;;;;;;2.93;0.80;;;7.90;99.90;;;;;;5057354;28;20239;-50
2021/03/05 10:31:44;;;;;;;2.60;0.70;;;7.80;99.90;;;;;;5039321;28;20322;-53
2021/03/05 10:34:27;;;;;;;3.50;1.00;;;7.80;99.90;;;;;;5030309;28;20740;-50
2021/03/05 10:36:59;;;;;;;5.83;0.97;;;8.10;99.90;;;;;;5039090;28;20751;-50
2021/03/05 10:39:28;;;;;;;1.97;0.77;;;8.20;99.90;;;;;;5042297;28;20236;-50
2021/03/05 10:41:59;;;;;;;1.77;0.70;;;8.20;99.90;;;;;;5040786;28;20289;-50
2021/03/05 10:44:30;;;;;;;1.07;0.80;;;8.10;99.90;;;;;;5039817;28;20250;-51
2021/03/05 10:46:58;;;;;;;2.13;0.63;;;7.90;99.90;;;;;;5033892;28;20351;-50
2021/03/05 10:49:28;;;;;;;1.83;0.73;;;7.90;99.90;;;;;;5036105;28;20891;-51
2021/03/05 10:51:57;;;;;;;1.73;0.70;;;7.80;99.90;;;;;;5036011;28;20243;-50
2021/03/05 10:54:24;;;;;;;1.50;0.80;;;8.10;99.90;;;;;;5029946;28;20892;-50
2021/03/05 10:56:52;;;;;;;2.67;0.80;;;8.10;99.90;;;;;;5028147;28;20232;-51
2021/03/05 10:59:22;;;;;;;1.93;0.70;;;8.30;99.90;;;;;;5027359;28;20246;-49
2021/03/05 11:01:53;;;;;;;2.67;0.70;;;8.50;99.90;;;;;;5051601;28;20351;-49
2021/03/05 11:04:24;;;;;;;3.10;1.03;;;8.80;99.90;;;;;;5049984;28;20240;-50
2021/03/05 11:06:54;;;;;;;1.00;0.63;;;8.80;99.90;;;;;;5031761;28;20241;-50
2021/03/05 11:09:25;;;;;;;2.53;0.70;;;8.40;99.90;;;;;;5028079;28;20589;-49
2021/03/05 11:11:53;;;;;;;1.43;0.80;;;8.00;99.90;;;;;;5033272;28;20286;-50
2021/03/05 11:14:21;;;;;;;1.77;0.70;;;8.20;99.90;;;;;;5041659;28;20248;-50
2021/03/05 11:16:49;;;;;;;2.37;0.63;;;8.30;99.90;;;;;;5041810;28;20700;-50
2021/03/05 11:19:17;;;;;;;1.53;0.60;;;8.40;99.90;;;;;;5045741;28;20242;-50
2021/03/05 11:21:45;;;;;;;2.53;0.60;;;8.30;99.90;;;;;;5042144;28;20248;-49
2021/03/05 11:24:14;;;;;;;2.00;0.80;;;8.40;99.90;;;;;;5028047;28;20243;-50
2021/03/05 11:26:42;;;;;;;1.67;0.77;;;8.40;99.90;;;;;;5042256;28;20304;-51
2021/03/05 11:29:10;;;;;;;2.63;0.60;;;8.40;99.90;;;;;;5020892;28;20303;-51
2021/03/05 11:31:39;;;;;;;1.90;0.60;;;8.40;99.90;;;;;;5051164;28;20244;-51
2021/03/05 11:34:07;;;;;;;1.47;0.60;;;8.30;99.90;;;;;;5033467;28;20237;-51
2021/03/05 11:36:35;;;;;;;2.77;0.77;;;8.40;99.90;;;;;;5005627;28;20244;-50
2021/03/05 11:39:04;;;;;;;2.70;0.60;;;8.60;99.90;;;;;;5018067;28;20279;-50
2021/03/05 11:41:33;;;;;;;1.53;0.67;;;8.60;99.90;;;;;;5018253;28;20234;-50
2021/03/05 11:44:16;;;;;;;1.73;0.70;;;8.50;99.90;;;;;;5045241;28;20228;-50
2021/03/05 11:46:44;;;;;;;1.47;0.70;;;8.30;99.90;;;;;;5032709;28;20241;-52
2021/03/05 11:49:12;;;;;;;1.80;0.60;;;8.40;99.90;;;;;;5034097;28;20230;-52
2021/03/05 11:51:39;;;;;;;2.23;0.70;;;8.90;99.90;;;;;;5045240;28;20236;-51
2021/03/05 11:54:08;;;;;;;4.73;0.90;;;9.20;99.90;;;;;;5040096;28;20259;-50
2021/03/05 11:56:37;;;;;;;1.63;0.80;;;9.20;99.90;;;;;;5031623;28;20244;-50
2021/03/05 11:59:05;;;;;;;1.50;0.50;;;8.90;99.90;;;;;;5026149;28;20236;-51
2021/03/05 12:01:33;;;;;;;0.83;0.60;;;8.80;99.90;;;;;;5032486;28;20233;-49
2021/03/05 12:04:01;;;;;;;1.00;0.70;;;8.70;99.90;;;;;;5027201;28;20578;-50
2021/03/05 12:06:29;;;;;;;2.13;0.80;;;8.70;99.90;;;;;;5029017;28;20619;-50
2021/03/05 12:08:57;;;;;;;0.97;0.70;;;8.70;99.90;;;;;;5031005;28;20320;-49
2021/03/05 12:11:25;;;;;;;2.73;0.97;;;8.70;99.90;;;;;;5038307;28;20294;-51
2021/03/05 12:13:53;;;;;;;2.03;0.70;;;8.70;99.90;;;;;;5050665;28;20789;-50
2021/03/05 12:16:22;;;;;;;1.93;0.70;;;8.40;99.90;;;;;;5046267;28;20319;-49
2021/03/05 12:18:49;;;;;;;2.63;0.77;;;8.20;99.90;;;;;;5043653;28;20235;-50
2021/03/05 12:21:17;;;;;;;3.33;0.53;;;8.30;99.90;;;;;;5042705;28;20603;-52
2021/03/05 12:23:44;;;;;;;1.80;0.70;;;8.40;99.90;;;;;;5034115;28;20261;-51
2021/03/05 12:26:12;;;;;;;1.80;0.80;;;8.40;99.90;;;;;;5032170;28;20785;-51
2021/03/05 12:28:39;;;;;;;1.77;0.80;;;8.30;99.90;;;;;;5034673;28;20256;-53
2021/03/05 12:31:07;;;;;;;0.90;0.50;;;8.20;99.90;;;;;;5042620;28;20248;-50
2021/03/05 12:33:36;;;;;;;3.83;0.60;;;8.20;99.90;;;;;;5046191;28;20581;-51
2021/03/05 12:36:07;;;;;;;1.33;0.57;;;8.00;99.90;;;;;;5035942;28;20244;-50
2021/03/05 12:38:35;;;;;;;1.57;0.70;;;7.90;99.90;;;;;;5039144;28;20236;-50
2021/03/05 12:41:02;;;;;;;1.87;0.60;;;7.80;99.90;;;;;;5043703;28;20242;-51
2021/03/05 12:43:31;;;;;;;2.40;0.70;;;7.90;99.90;;;;;;5027647;28;20263;-50
2021/03/05 12:45:58;;;;;;;1.53;0.60;;;7.80;99.90;;;;;;5041765;28;20347;-52
2021/03/05 12:48:44;;;;;;;0.73;0.50;;;7.80;99.90;;;;;;5057009;28;20266;-52
2021/03/05 12:51:11;;;;;;;3.20;0.70;;;8.10;99.90;;;;;;5048345;28;20326;-51
2021/03/05 12:53:39;;;;;;;2.23;0.87;;;8.40;99.90;;;;;;5053377;28;20247;-51
2021/03/05 12:56:07;;;;;;;1.43;0.70;;;8.60;99.90;;;;;;5044766;28;20680;-50
2021/03/05 12:58:34;;;;;;;4.60;1.10;;;8.50;99.90;;;;;;5025146;28;20284;-50
2021/03/05 13:01:02;;;;;;;3.90;0.60;;;8.30;99.90;;;;;;5025892;28;20238;-52
2021/03/05 13:03:29;;;;;;;2.10;0.70;;;7.90;99.90;;;;;;5025872;28;20697;-50
2021/03/05 13:05:58;;;;;;;2.10;0.70;;;7.70;99.90;;;;;;5033366;28;20334;-50
2021/03/05 13:08:25;;;;;;;2.63;0.77;;;7.70;99.90;;;;;;5043743;28;20268;-50
2021/03/05 13:10:53;;;;;;;1.60;0.67;;;8.00;99.90;;;;;;5037803;28;20599;-50
2021/03/05 13:13:21;;;;;;;3.37;1.13;;;7.80;99.90;;;;;;5033275;28;20232;-50
2021/03/05 13:15:48;;;;;;;1.37;0.50;;;7.80;99.90;;;;;;5036718;28;20237;-50
2021/03/05 13:18:17;;;;;;;1.50;0.60;;;8.00;99.90;;;;;;5037376;28;20232;-50
2021/03/05 13:20:44;;;;;;;2.37;0.70;;;8.30;99.90;;;;;;5028143;28;20248;-51